sensor_id;sensor_type;location;lat;lon;timestamp;P1;durP1;ratioP1;P2;durP2;ratioP2
59828;SDS011;45708;51.848;107.620;2022-10-17T00:00:56;46.97;;;18.40;;
59828;SDS011;45708;51.848;107.620;2022-10-17T00:05:57;40.27;;;17.67;;
59828;SDS011;45708;51.848;107.620;2022-10-17T00:10:59;62.40;;;23.02;;
59828;SDS011;45708;51.848;107.620;2022-10-17T00:16:03;52.75;;;24.30;;
59828;SDS011;45708;51.848;107.620;2022-10-17T00:21:05;88.80;;;34.55;;
59828;SDS011;45708;51.848;107.620;2022-10-17T00:26:06;87.07;;;37.33;;
59828;SDS011;45708;51.848;107.620;2022-10-17T00:31:06;94.35;;;36.05;;
59828;SDS011;45708;51.848;107.620;2022-10-17T00:36:08;81.65;;;32.80;;
59828;SDS011;45708;51.848;107.620;2022-10-17T00:41:13;74.45;;;29.27;;
59828;SDS011;45708;51.848;107.620;2022-10-17T00:46:15;76.35;;;33.45;;
59828;SDS011;45708;51.848;107.620;2022-10-17T00:51:16;77.85;;;30.20;;
59828;SDS011;45708;51.848;107.620;2022-10-17T00:56:20;78.35;;;35.40;;
59828;SDS011;45708;51.848;107.620;2022-10-17T01:01:21;93.70;;;35.63;;
59828;SDS011;45708;51.848;107.620;2022-10-17T01:06:21;97.57;;;40.10;;
59828;SDS011;45708;51.848;107.620;2022-10-17T01:11:31;88.50;;;38.92;;
59828;SDS011;45708;51.848;107.620;2022-10-17T01:21:59;54.90;;;30.05;;
59828;SDS011;45708;51.848;107.620;2022-10-17T01:27:28;64.00;;;32.85;;
59828;SDS011;45708;51.848;107.620;2022-10-17T01:33:08;54.33;;;29.50;;
59828;SDS011;45708;51.848;107.620;2022-10-17T01:38:13;54.47;;;24.90;;
59828;SDS011;45708;51.848;107.620;2022-10-17T01:43:23;61.50;;;26.55;;
59828;SDS011;45708;51.848;107.620;2022-10-17T01:53:41;29.80;;;16.45;;
59828;SDS011;45708;51.848;107.620;2022-10-17T01:58:51;29.02;;;15.52;;
59828;SDS011;45708;51.848;107.620;2022-10-17T02:03:57;37.65;;;20.20;;
59828;SDS011;45708;51.848;107.620;2022-10-17T02:08:59;37.50;;;19.33;;
59828;SDS011;45708;51.848;107.620;2022-10-17T02:30:33;30.60;;;16.40;;
59828;SDS011;45708;51.848;107.620;2022-10-17T02:35:34;30.85;;;16.08;;
59828;SDS011;45708;51.848;107.620;2022-10-17T02:40:37;30.73;;;15.68;;
59828;SDS011;45708;51.848;107.620;2022-10-17T02:45:40;28.23;;;13.90;;
59828;SDS011;45708;51.848;107.620;2022-10-17T02:55:49;28.90;;;13.70;;
59828;SDS011;45708;51.848;107.620;2022-10-17T03:00:55;20.00;;;10.55;;
59828;SDS011;45708;51.848;107.620;2022-10-17T03:05:57;28.95;;;14.23;;
59828;SDS011;45708;51.848;107.620;2022-10-17T03:10:58;15.80;;;9.60;;
59828;SDS011;45708;51.848;107.620;2022-10-17T03:15:59;17.20;;;8.70;;
59828;SDS011;45708;51.848;107.620;2022-10-17T03:20:59;21.00;;;7.80;;
59828;SDS011;45708;51.848;107.620;2022-10-17T03:26:04;21.33;;;6.72;;
59828;SDS011;45708;51.848;107.620;2022-10-17T03:31:09;10.45;;;4.75;;
59828;SDS011;45708;51.848;107.620;2022-10-17T03:36:13;13.18;;;7.18;;
59828;SDS011;45708;51.848;107.620;2022-10-17T03:41:16;11.85;;;4.78;;
59828;SDS011;45708;51.848;107.620;2022-10-17T03:46:16;10.50;;;6.20;;
59828;SDS011;45708;51.848;107.620;2022-10-17T03:51:17;13.30;;;3.58;;
59828;SDS011;45708;51.848;107.620;2022-10-17T03:56:20;22.58;;;18.23;;
59828;SDS011;45708;51.848;107.620;2022-10-17T04:01:22;9.77;;;5.43;;
59828;SDS011;45708;51.848;107.620;2022-10-17T04:06:23;12.13;;;6.20;;
59828;SDS011;45708;51.848;107.620;2022-10-17T04:11:24;12.43;;;6.63;;
59828;SDS011;45708;51.848;107.620;2022-10-17T04:16:25;12.20;;;4.63;;
59828;SDS011;45708;51.848;107.620;2022-10-17T04:21:27;7.35;;;3.03;;
59828;SDS011;45708;51.848;107.620;2022-10-17T04:26:28;7.50;;;3.90;;
59828;SDS011;45708;51.848;107.620;2022-10-17T04:31:29;8.98;;;3.88;;
59828;SDS011;45708;51.848;107.620;2022-10-17T04:36:30;24.48;;;6.13;;
59828;SDS011;45708;51.848;107.620;2022-10-17T04:41:31;11.98;;;5.28;;
59828;SDS011;45708;51.848;107.620;2022-10-17T04:46:33;9.82;;;5.22;;
59828;SDS011;45708;51.848;107.620;2022-10-17T04:51:34;10.80;;;4.88;;
59828;SDS011;45708;51.848;107.620;2022-10-17T04:56:35;10.75;;;4.85;;
59828;SDS011;45708;51.848;107.620;2022-10-17T05:01:35;9.00;;;5.07;;
59828;SDS011;45708;51.848;107.620;2022-10-17T05:06:36;11.65;;;5.72;;
59828;SDS011;45708;51.848;107.620;2022-10-17T05:11:37;10.75;;;5.18;;
59828;SDS011;45708;51.848;107.620;2022-10-17T05:16:38;8.32;;;3.70;;
59828;SDS011;45708;51.848;107.620;2022-10-17T05:21:39;14.68;;;4.97;;
59828;SDS011;45708;51.848;107.620;2022-10-17T05:26:39;13.32;;;4.75;;
59828;SDS011;45708;51.848;107.620;2022-10-17T05:31:40;11.90;;;5.10;;
59828;SDS011;45708;51.848;107.620;2022-10-17T05:36:41;9.35;;;4.03;;
59828;SDS011;45708;51.848;107.620;2022-10-17T05:41:42;11.95;;;5.57;;
59828;SDS011;45708;51.848;107.620;2022-10-17T05:46:43;12.48;;;5.63;;
59828;SDS011;45708;51.848;107.620;2022-10-17T05:51:44;12.55;;;5.97;;
59828;SDS011;45708;51.848;107.620;2022-10-17T05:56:45;9.80;;;4.97;;
59828;SDS011;45708;51.848;107.620;2022-10-17T06:01:50;8.35;;;3.00;;
59828;SDS011;45708;51.848;107.620;2022-10-17T06:06:52;5.72;;;3.67;;
59828;SDS011;45708;51.848;107.620;2022-10-17T06:11:53;14.43;;;8.15;;
59828;SDS011;45708;51.848;107.620;2022-10-17T06:16:54;7.32;;;3.85;;
59828;SDS011;45708;51.848;107.620;2022-10-17T06:21:54;13.85;;;5.43;;
59828;SDS011;45708;51.848;107.620;2022-10-17T06:26:55;12.68;;;5.10;;
59828;SDS011;45708;51.848;107.620;2022-10-17T06:31:56;6.18;;;3.13;;
59828;SDS011;45708;51.848;107.620;2022-10-17T06:36:57;8.93;;;4.07;;
59828;SDS011;45708;51.848;107.620;2022-10-17T06:41:58;8.15;;;3.47;;
59828;SDS011;45708;51.848;107.620;2022-10-17T06:47:03;10.93;;;5.15;;
59828;SDS011;45708;51.848;107.620;2022-10-17T06:52:04;10.05;;;3.88;;
59828;SDS011;45708;51.848;107.620;2022-10-17T06:57:04;8.70;;;6.32;;
59828;SDS011;45708;51.848;107.620;2022-10-17T07:02:05;6.47;;;2.65;;
59828;SDS011;45708;51.848;107.620;2022-10-17T07:07:08;4.57;;;2.58;;
59828;SDS011;45708;51.848;107.620;2022-10-17T07:12:08;4.60;;;3.97;;
59828;SDS011;45708;51.848;107.620;2022-10-17T07:17:09;6.53;;;2.75;;
59828;SDS011;45708;51.848;107.620;2022-10-17T07:22:10;3.13;;;1.98;;
59828;SDS011;45708;51.848;107.620;2022-10-17T07:27:12;4.25;;;2.03;;
59828;SDS011;45708;51.848;107.620;2022-10-17T07:32:14;4.70;;;2.47;;
59828;SDS011;45708;51.848;107.620;2022-10-17T07:37:14;3.40;;;2.17;;
59828;SDS011;45708;51.848;107.620;2022-10-17T07:42:15;5.55;;;3.13;;
59828;SDS011;45708;51.848;107.620;2022-10-17T07:47:16;4.70;;;1.65;;
59828;SDS011;45708;51.848;107.620;2022-10-17T07:52:17;6.32;;;2.65;;
59828;SDS011;45708;51.848;107.620;2022-10-17T07:57:18;5.18;;;2.45;;
59828;SDS011;45708;51.848;107.620;2022-10-17T08:02:23;5.50;;;3.92;;
59828;SDS011;45708;51.848;107.620;2022-10-17T08:07:26;10.13;;;1.58;;
59828;SDS011;45708;51.848;107.620;2022-10-17T08:12:26;4.88;;;2.53;;
59828;SDS011;45708;51.848;107.620;2022-10-17T08:17:27;7.07;;;3.70;;
59828;SDS011;45708;51.848;107.620;2022-10-17T08:22:29;7.10;;;2.42;;
59828;SDS011;45708;51.848;107.620;2022-10-17T08:27:32;2.22;;;1.35;;
59828;SDS011;45708;51.848;107.620;2022-10-17T08:32:33;4.20;;;2.03;;
59828;SDS011;45708;51.848;107.620;2022-10-17T08:37:34;4.45;;;1.88;;
59828;SDS011;45708;51.848;107.620;2022-10-17T08:42:48;8.57;;;2.40;;
59828;SDS011;45708;51.848;107.620;2022-10-17T08:48:00;5.43;;;2.47;;
59828;SDS011;45708;51.848;107.620;2022-10-17T08:53:11;12.90;;;4.68;;
59828;SDS011;45708;51.848;107.620;2022-10-17T09:23:57;8.05;;;4.85;;
59828;SDS011;45708;51.848;107.620;2022-10-17T09:29:01;12.43;;;4.90;;
59828;SDS011;45708;51.848;107.620;2022-10-17T09:34:09;11.23;;;3.53;;
59828;SDS011;45708;51.848;107.620;2022-10-17T09:39:12;10.82;;;6.20;;
59828;SDS011;45708;51.848;107.620;2022-10-17T09:44:28;29.08;;;11.75;;
59828;SDS011;45708;51.848;107.620;2022-10-17T09:49:37;55.15;;;22.30;;
59828;SDS011;45708;51.848;107.620;2022-10-17T09:54:44;51.40;;;21.65;;
59828;SDS011;45708;51.848;107.620;2022-10-17T10:00:05;74.95;;;32.88;;
59828;SDS011;45708;51.848;107.620;2022-10-17T10:05:17;79.70;;;35.10;;
59828;SDS011;45708;51.848;107.620;2022-10-17T10:10:22;52.55;;;21.80;;
59828;SDS011;45708;51.848;107.620;2022-10-17T10:15:33;35.08;;;15.57;;
59828;SDS011;45708;51.848;107.620;2022-10-17T10:20:36;32.95;;;13.07;;
59828;SDS011;45708;51.848;107.620;2022-10-17T10:25:37;22.58;;;12.05;;
59828;SDS011;45708;51.848;107.620;2022-10-17T10:30:48;20.58;;;11.65;;
59828;SDS011;45708;51.848;107.620;2022-10-17T10:36:10;27.80;;;12.50;;
59828;SDS011;45708;51.848;107.620;2022-10-17T10:41:10;28.55;;;14.00;;
59828;SDS011;45708;51.848;107.620;2022-10-17T10:46:18;40.45;;;18.75;;
59828;SDS011;45708;51.848;107.620;2022-10-17T10:56:41;42.33;;;21.10;;
59828;SDS011;45708;51.848;107.620;2022-10-17T11:02:02;125.22;;;47.60;;
59828;SDS011;45708;51.848;107.620;2022-10-17T11:12:33;31.08;;;14.48;;
59828;SDS011;45708;51.848;107.620;2022-10-17T11:17:56;16.48;;;7.70;;
59828;SDS011;45708;51.848;107.620;2022-10-17T11:23:01;52.58;;;22.67;;
59828;SDS011;45708;51.848;107.620;2022-10-17T11:28:14;57.47;;;22.08;;
59828;SDS011;45708;51.848;107.620;2022-10-17T11:33:27;77.65;;;31.55;;
59828;SDS011;45708;51.848;107.620;2022-10-17T11:43:39;78.03;;;33.53;;
59828;SDS011;45708;51.848;107.620;2022-10-17T11:49:17;83.13;;;34.13;;
59828;SDS011;45708;51.848;107.620;2022-10-17T11:54:32;67.30;;;33.30;;
59828;SDS011;45708;51.848;107.620;2022-10-17T11:59:44;65.25;;;30.80;;
59828;SDS011;45708;51.848;107.620;2022-10-17T12:10:00;83.68;;;36.70;;
59828;SDS011;45708;51.848;107.620;2022-10-17T12:20:25;97.15;;;38.22;;
59828;SDS011;45708;51.848;107.620;2022-10-17T12:25:29;78.90;;;35.83;;
59828;SDS011;45708;51.848;107.620;2022-10-17T12:30:31;59.40;;;26.65;;
59828;SDS011;45708;51.848;107.620;2022-10-17T12:35:34;55.60;;;24.60;;
59828;SDS011;45708;51.848;107.620;2022-10-17T12:50:59;38.42;;;18.38;;
59828;SDS011;45708;51.848;107.620;2022-10-17T12:56:02;57.67;;;27.67;;
59828;SDS011;45708;51.848;107.620;2022-10-17T13:01:04;46.80;;;19.75;;
59828;SDS011;45708;51.848;107.620;2022-10-17T13:06:05;36.85;;;17.58;;
59828;SDS011;45708;51.848;107.620;2022-10-17T13:11:07;23.13;;;11.15;;
59828;SDS011;45708;51.848;107.620;2022-10-17T13:16:25;21.80;;;9.90;;
59828;SDS011;45708;51.848;107.620;2022-10-17T13:21:37;20.15;;;9.93;;
59828;SDS011;45708;51.848;107.620;2022-10-17T13:26:43;29.02;;;10.88;;
59828;SDS011;45708;51.848;107.620;2022-10-17T13:31:45;29.13;;;11.18;;
59828;SDS011;45708;51.848;107.620;2022-10-17T13:37:10;20.15;;;9.05;;
59828;SDS011;45708;51.848;107.620;2022-10-17T13:42:24;22.42;;;8.52;;
59828;SDS011;45708;51.848;107.620;2022-10-17T13:47:28;17.23;;;8.55;;
59828;SDS011;45708;51.848;107.620;2022-10-17T13:52:33;22.00;;;8.38;;
59828;SDS011;45708;51.848;107.620;2022-10-17T13:57:34;24.05;;;9.85;;
59828;SDS011;45708;51.848;107.620;2022-10-17T14:02:34;24.52;;;9.48;;
59828;SDS011;45708;51.848;107.620;2022-10-17T14:07:39;27.85;;;10.85;;
59828;SDS011;45708;51.848;107.620;2022-10-17T14:12:44;17.23;;;7.53;;
59828;SDS011;45708;51.848;107.620;2022-10-17T14:17:45;17.23;;;7.95;;
59828;SDS011;45708;51.848;107.620;2022-10-17T14:22:53;26.50;;;10.45;;
59828;SDS011;45708;51.848;107.620;2022-10-17T14:28:00;15.98;;;7.82;;
59828;SDS011;45708;51.848;107.620;2022-10-17T14:33:24;22.10;;;10.60;;
59828;SDS011;45708;51.848;107.620;2022-10-17T14:38:28;25.95;;;9.95;;
59828;SDS011;45708;51.848;107.620;2022-10-17T14:43:29;30.23;;;12.07;;
59828;SDS011;45708;51.848;107.620;2022-10-17T14:48:31;28.45;;;12.82;;
59828;SDS011;45708;51.848;107.620;2022-10-17T14:53:33;35.08;;;12.32;;
59828;SDS011;45708;51.848;107.620;2022-10-17T14:58:34;98.13;;;39.28;;
59828;SDS011;45708;51.848;107.620;2022-10-17T15:03:35;73.68;;;27.65;;
59828;SDS011;45708;51.848;107.620;2022-10-17T15:08:35;119.00;;;48.53;;
59828;SDS011;45708;51.848;107.620;2022-10-17T15:13:37;123.50;;;46.17;;
59828;SDS011;45708;51.848;107.620;2022-10-17T15:18:37;123.50;;;45.73;;
59828;SDS011;45708;51.848;107.620;2022-10-17T15:23:38;103.30;;;39.33;;
59828;SDS011;45708;51.848;107.620;2022-10-17T15:28:39;76.90;;;30.90;;
59828;SDS011;45708;51.848;107.620;2022-10-17T15:33:41;71.23;;;27.47;;
59828;SDS011;45708;51.848;107.620;2022-10-17T15:38:42;69.90;;;28.20;;
59828;SDS011;45708;51.848;107.620;2022-10-17T15:43:43;81.20;;;33.03;;
59828;SDS011;45708;51.848;107.620;2022-10-17T15:48:45;89.10;;;35.20;;
59828;SDS011;45708;51.848;107.620;2022-10-17T15:53:46;83.33;;;27.83;;
59828;SDS011;45708;51.848;107.620;2022-10-17T15:58:47;76.73;;;29.60;;
59828;SDS011;45708;51.848;107.620;2022-10-17T16:03:49;95.23;;;39.47;;
59828;SDS011;45708;51.848;107.620;2022-10-17T16:08:50;85.97;;;35.10;;
59828;SDS011;45708;51.848;107.620;2022-10-17T16:13:51;61.60;;;25.30;;
59828;SDS011;45708;51.848;107.620;2022-10-17T16:18:54;80.87;;;30.20;;
59828;SDS011;45708;51.848;107.620;2022-10-17T16:23:56;40.77;;;19.37;;
59828;SDS011;45708;51.848;107.620;2022-10-17T16:28:57;39.83;;;16.10;;
59828;SDS011;45708;51.848;107.620;2022-10-17T16:33:58;44.93;;;18.17;;
59828;SDS011;45708;51.848;107.620;2022-10-17T16:39:00;44.70;;;17.80;;
59828;SDS011;45708;51.848;107.620;2022-10-17T16:44:03;43.73;;;15.07;;
59828;SDS011;45708;51.848;107.620;2022-10-17T16:49:06;48.07;;;18.70;;
59828;SDS011;45708;51.848;107.620;2022-10-17T16:54:07;42.90;;;18.00;;
59828;SDS011;45708;51.848;107.620;2022-10-17T16:59:09;51.67;;;19.70;;
59828;SDS011;45708;51.848;107.620;2022-10-17T17:04:10;56.13;;;22.20;;
59828;SDS011;45708;51.848;107.620;2022-10-17T17:09:11;42.20;;;18.90;;
59828;SDS011;45708;51.848;107.620;2022-10-17T17:14:12;42.33;;;18.97;;
59828;SDS011;45708;51.848;107.620;2022-10-17T17:19:13;52.57;;;20.63;;
59828;SDS011;45708;51.848;107.620;2022-10-17T17:24:18;25.87;;;12.20;;
59828;SDS011;45708;51.848;107.620;2022-10-17T17:29:20;51.70;;;17.77;;
59828;SDS011;45708;51.848;107.620;2022-10-17T17:34:22;35.07;;;16.53;;
59828;SDS011;45708;51.848;107.620;2022-10-17T17:39:23;37.97;;;16.50;;
59828;SDS011;45708;51.848;107.620;2022-10-17T17:44:23;42.23;;;17.60;;
59828;SDS011;45708;51.848;107.620;2022-10-17T17:49:24;32.80;;;14.10;;
59828;SDS011;45708;51.848;107.620;2022-10-17T17:54:25;36.90;;;14.53;;
59828;SDS011;45708;51.848;107.620;2022-10-17T17:59:26;20.60;;;9.17;;
59828;SDS011;45708;51.848;107.620;2022-10-17T18:04:27;23.73;;;11.57;;
59828;SDS011;45708;51.848;107.620;2022-10-17T18:09:28;18.93;;;8.30;;
59828;SDS011;45708;51.848;107.620;2022-10-17T18:14:28;27.63;;;10.27;;
59828;SDS011;45708;51.848;107.620;2022-10-17T18:19:29;27.70;;;12.17;;
59828;SDS011;45708;51.848;107.620;2022-10-17T18:24:30;30.00;;;13.50;;
59828;SDS011;45708;51.848;107.620;2022-10-17T18:29:31;21.63;;;11.93;;
59828;SDS011;45708;51.848;107.620;2022-10-17T18:34:32;25.00;;;12.57;;
59828;SDS011;45708;51.848;107.620;2022-10-17T18:39:33;25.30;;;11.80;;
59828;SDS011;45708;51.848;107.620;2022-10-17T18:44:34;25.83;;;12.23;;
59828;SDS011;45708;51.848;107.620;2022-10-17T18:49:35;27.63;;;13.20;;
59828;SDS011;45708;51.848;107.620;2022-10-17T18:54:36;24.57;;;11.80;;
59828;SDS011;45708;51.848;107.620;2022-10-17T18:59:36;22.53;;;10.37;;
59828;SDS011;45708;51.848;107.620;2022-10-17T19:04:37;18.50;;;10.07;;
59828;SDS011;45708;51.848;107.620;2022-10-17T19:09:38;12.00;;;5.43;;
59828;SDS011;45708;51.848;107.620;2022-10-17T19:14:39;17.10;;;8.87;;
59828;SDS011;45708;51.848;107.620;2022-10-17T19:19:40;18.13;;;8.07;;
59828;SDS011;45708;51.848;107.620;2022-10-17T19:24:41;21.90;;;8.87;;
59828;SDS011;45708;51.848;107.620;2022-10-17T19:29:41;13.90;;;7.23;;
59828;SDS011;45708;51.848;107.620;2022-10-17T19:34:42;19.30;;;9.33;;
59828;SDS011;45708;51.848;107.620;2022-10-17T19:39:43;17.67;;;8.37;;
59828;SDS011;45708;51.848;107.620;2022-10-17T19:44:44;13.63;;;6.90;;
59828;SDS011;45708;51.848;107.620;2022-10-17T19:49:45;19.10;;;9.60;;
59828;SDS011;45708;51.848;107.620;2022-10-17T19:54:47;10.57;;;6.57;;
59828;SDS011;45708;51.848;107.620;2022-10-17T19:59:47;6.30;;;3.67;;
59828;SDS011;45708;51.848;107.620;2022-10-17T20:04:48;24.30;;;10.03;;
59828;SDS011;45708;51.848;107.620;2022-10-17T20:09:49;23.60;;;12.13;;
59828;SDS011;45708;51.848;107.620;2022-10-17T20:14:50;18.50;;;8.60;;
59828;SDS011;45708;51.848;107.620;2022-10-17T20:19:50;23.63;;;11.67;;
59828;SDS011;45708;51.848;107.620;2022-10-17T20:24:51;18.73;;;9.17;;
59828;SDS011;45708;51.848;107.620;2022-10-17T20:29:52;16.00;;;9.33;;
59828;SDS011;45708;51.848;107.620;2022-10-17T20:34:53;11.87;;;6.47;;
59828;SDS011;45708;51.848;107.620;2022-10-17T20:39:54;12.20;;;7.00;;
59828;SDS011;45708;51.848;107.620;2022-10-17T20:44:55;17.40;;;7.73;;
59828;SDS011;45708;51.848;107.620;2022-10-17T20:49:56;11.03;;;5.93;;
59828;SDS011;45708;51.848;107.620;2022-10-17T20:54:57;15.33;;;7.93;;
59828;SDS011;45708;51.848;107.620;2022-10-17T20:59:57;18.37;;;8.23;;
59828;SDS011;45708;51.848;107.620;2022-10-17T21:04:58;10.30;;;7.07;;
59828;SDS011;45708;51.848;107.620;2022-10-17T21:09:59;16.50;;;7.73;;
59828;SDS011;45708;51.848;107.620;2022-10-17T21:15:00;12.20;;;6.57;;
59828;SDS011;45708;51.848;107.620;2022-10-17T21:20:01;14.23;;;5.73;;
59828;SDS011;45708;51.848;107.620;2022-10-17T21:25:01;15.10;;;8.20;;
59828;SDS011;45708;51.848;107.620;2022-10-17T21:30:02;16.10;;;7.70;;
59828;SDS011;45708;51.848;107.620;2022-10-17T21:35:04;12.50;;;6.30;;
59828;SDS011;45708;51.848;107.620;2022-10-17T21:40:05;14.13;;;6.17;;
59828;SDS011;45708;51.848;107.620;2022-10-17T21:45:06;22.07;;;11.30;;
59828;SDS011;45708;51.848;107.620;2022-10-17T21:50:08;24.57;;;12.17;;
59828;SDS011;45708;51.848;107.620;2022-10-17T21:55:08;17.67;;;10.77;;
59828;SDS011;45708;51.848;107.620;2022-10-17T22:00:09;18.57;;;7.77;;
59828;SDS011;45708;51.848;107.620;2022-10-17T22:05:11;20.90;;;11.37;;
59828;SDS011;45708;51.848;107.620;2022-10-17T22:10:12;20.37;;;10.47;;
59828;SDS011;45708;51.848;107.620;2022-10-17T22:15:13;20.43;;;10.97;;
59828;SDS011;45708;51.848;107.620;2022-10-17T22:20:14;16.87;;;9.23;;
59828;SDS011;45708;51.848;107.620;2022-10-17T22:25:14;19.87;;;9.50;;
59828;SDS011;45708;51.848;107.620;2022-10-17T22:30:15;20.70;;;9.53;;
59828;SDS011;45708;51.848;107.620;2022-10-17T22:35:16;17.63;;;9.33;;
59828;SDS011;45708;51.848;107.620;2022-10-17T22:40:17;12.37;;;6.30;;
59828;SDS011;45708;51.848;107.620;2022-10-17T22:45:18;11.30;;;4.87;;
59828;SDS011;45708;51.848;107.620;2022-10-17T22:50:19;8.63;;;5.53;;
59828;SDS011;45708;51.848;107.620;2022-10-17T22:55:20;15.47;;;8.97;;
59828;SDS011;45708;51.848;107.620;2022-10-17T23:00:21;11.97;;;5.03;;
59828;SDS011;45708;51.848;107.620;2022-10-17T23:05:22;8.83;;;5.03;;
59828;SDS011;45708;51.848;107.620;2022-10-17T23:10:23;16.93;;;7.50;;
59828;SDS011;45708;51.848;107.620;2022-10-17T23:15:24;14.43;;;7.87;;
59828;SDS011;45708;51.848;107.620;2022-10-17T23:20:25;10.37;;;5.53;;
59828;SDS011;45708;51.848;107.620;2022-10-17T23:25:26;21.63;;;10.23;;
59828;SDS011;45708;51.848;107.620;2022-10-17T23:30:27;23.13;;;9.97;;
59828;SDS011;45708;51.848;107.620;2022-10-17T23:35:31;18.00;;;8.07;;
59828;SDS011;45708;51.848;107.620;2022-10-17T23:40:32;15.67;;;7.87;;
59828;SDS011;45708;51.848;107.620;2022-10-17T23:45:33;24.20;;;10.17;;
59828;SDS011;45708;51.848;107.620;2022-10-17T23:50:34;32.97;;;14.37;;
59828;SDS011;45708;51.848;107.620;2022-10-17T23:55:34;27.33;;;14.33;;
